createdAt,value
2022-08-25T00:02:56.763Z,7.68
2022-08-25T00:05:59.872Z,7.28
2022-08-25T00:09:01.517Z,6.43
2022-08-25T00:12:05.821Z,7.35
2022-08-25T00:15:09.176Z,8.73
2022-08-25T00:18:19.319Z,8.82
2022-08-25T00:21:22.586Z,9.15
2022-08-25T00:24:24.934Z,9.93
2022-08-25T00:27:27.188Z,13.20
2022-08-25T00:30:28.815Z,8.05
2022-08-25T00:33:31.179Z,8.55
2022-08-25T00:36:33.063Z,5.63
2022-08-25T00:39:35.659Z,9.32
2022-08-25T00:42:37.765Z,5.38
2022-08-25T00:45:40.421Z,8.43
2022-08-25T00:48:46.526Z,9.00
2022-08-25T00:52:01.605Z,6.88
2022-08-25T00:55:11.317Z,7.60
2022-08-25T00:58:18.395Z,10.80
2022-08-25T01:01:20.299Z,9.68
2022-08-25T01:04:22.329Z,9.00
2022-08-25T01:07:24.133Z,8.32
2022-08-25T01:10:28.112Z,6.53
2022-08-25T01:13:35.136Z,7.78
2022-08-25T01:16:38.489Z,7.60
2022-08-25T01:19:40.710Z,8.85
2022-08-25T01:22:42.608Z,8.32
2022-08-25T01:26:10.890Z,10.40
2022-08-25T01:29:21.721Z,6.53
2022-08-25T01:32:23.708Z,13.75
2022-08-25T01:35:25.382Z,7.10
2022-08-25T01:38:27.728Z,7.95
2022-08-25T01:41:34.808Z,10.27
2022-08-25T01:44:44.064Z,11.88
2022-08-25T01:47:45.879Z,11.40
2022-08-25T01:50:47.513Z,7.05
2022-08-25T01:53:49.216Z,7.28
2022-08-25T01:56:51.028Z,8.82
2022-08-25T01:59:52.629Z,10.38
2022-08-25T02:02:55.575Z,8.80
2022-08-25T02:05:59.256Z,7.47
2022-08-25T02:09:07.099Z,10.40
2022-08-25T02:12:12.112Z,11.15
2022-08-25T02:15:14.145Z,11.75
2022-08-25T02:18:15.941Z,15.57
2022-08-25T02:21:17.843Z,17.35
2022-08-25T02:24:19.565Z,11.75
2022-08-25T02:27:21.157Z,9.40
2022-08-25T02:30:22.991Z,12.18
2022-08-25T02:33:24.629Z,14.95
2022-08-25T02:36:26.780Z,17.30
2022-08-25T02:39:28.392Z,9.38
2022-08-25T02:42:30.213Z,14.35
2022-08-25T02:45:32.571Z,10.90
2022-08-25T02:48:34.222Z,10.85
2022-08-25T02:51:37.374Z,15.82
2022-08-25T02:54:38.982Z,10.32
2022-08-25T02:57:42.000Z,13.13
2022-08-25T03:00:43.939Z,10.13
2022-08-25T03:03:46.430Z,17.50
2022-08-25T03:06:48.454Z,15.77
2022-08-25T03:09:50.100Z,11.93
2022-08-25T03:12:51.745Z,13.82
2022-08-25T03:15:54.240Z,8.77
2022-08-25T03:18:56.853Z,13.02
2022-08-25T03:21:59.379Z,10.48
2022-08-25T03:25:24.018Z,11.80
2022-08-25T03:28:29.903Z,13.15
2022-08-25T03:31:33.563Z,12.27
2022-08-25T03:34:35.353Z,12.50
2022-08-25T03:37:37.763Z,8.13
2022-08-25T03:40:39.428Z,16.95
2022-08-25T03:43:41.304Z,14.20
2022-08-25T03:46:46.360Z,13.07
2022-08-25T03:49:47.960Z,15.00
2022-08-25T03:52:56.989Z,17.10
2022-08-25T03:55:58.615Z,13.82
2022-08-25T03:59:00.623Z,12.15
2022-08-25T04:02:02.740Z,11.57
2022-08-25T04:05:04.776Z,14.25
2022-08-25T04:08:07.230Z,14.75
2022-08-25T04:11:13.005Z,15.55
2022-08-25T04:14:16.645Z,14.32
2022-08-25T04:17:18.604Z,11.18
2022-08-25T04:20:20.257Z,13.52
2022-08-25T04:23:21.854Z,17.83
2022-08-25T04:26:30.420Z,14.50
2022-08-25T04:29:32.596Z,13.18
2022-08-25T04:32:36.326Z,13.73
2022-08-25T04:35:37.913Z,18.67
2022-08-25T04:38:41.709Z,17.90
2022-08-25T04:41:43.571Z,14.63
2022-08-25T04:44:45.146Z,21.13
2022-08-25T04:47:47.211Z,11.43
2022-08-25T04:50:51.303Z,14.07
2022-08-25T04:53:52.934Z,15.10
2022-08-25T04:56:58.077Z,16.10
2022-08-25T05:00:00.433Z,20.05
2022-08-25T05:03:03.628Z,14.68
2022-08-25T05:06:06.017Z,14.75
2022-08-25T05:09:08.078Z,15.73
2022-08-25T05:12:11.807Z,18.23
2022-08-25T05:15:33.107Z,13.55
2022-08-25T05:18:36.186Z,12.60
2022-08-25T05:21:37.802Z,11.25
2022-08-25T05:24:39.365Z,25.90
2022-08-25T05:27:42.517Z,10.57
2022-08-25T05:30:44.676Z,24.08
2022-08-25T05:33:46.851Z,22.33
2022-08-25T05:36:49.155Z,17.77
2022-08-25T05:39:50.833Z,18.50
2022-08-25T05:42:52.605Z,17.50
2022-08-25T05:45:58.213Z,18.27
2022-08-25T05:48:59.998Z,17.77
2022-08-25T05:52:01.656Z,12.23
2022-08-25T05:55:03.663Z,13.30
2022-08-25T05:58:06.534Z,19.73
2022-08-25T06:01:39.259Z,13.20
2022-08-25T06:04:41.441Z,23.75
2022-08-25T06:07:44.409Z,21.67
2022-08-25T06:10:51.430Z,21.17
2022-08-25T06:13:53.006Z,18.05
2022-08-25T06:16:54.641Z,18.38
2022-08-25T06:19:56.325Z,18.85
2022-08-25T06:22:59.353Z,12.68
2022-08-25T06:26:00.944Z,18.52
2022-08-25T06:29:03.761Z,19.58
2022-08-25T06:32:05.979Z,16.67
2022-08-25T06:35:10.830Z,12.45
2022-08-25T06:38:12.394Z,26.08
2022-08-25T06:41:14.533Z,17.48
2022-08-25T06:44:16.233Z,17.77
2022-08-25T06:47:18.466Z,10.95
2022-08-25T06:50:20.255Z,19.23
2022-08-25T06:53:21.857Z,13.25
2022-08-25T06:56:23.980Z,14.27
2022-08-25T06:59:25.756Z,12.75
2022-08-25T07:02:35.364Z,12.30
2022-08-25T07:05:44.262Z,14.32
2022-08-25T07:08:47.415Z,11.77
2022-08-25T07:11:49.053Z,9.95
2022-08-25T07:15:10.228Z,9.52
2022-08-25T07:18:12.625Z,9.10
2022-08-25T07:21:15.380Z,10.40
2022-08-25T07:24:17.123Z,11.20
2022-08-25T07:27:18.707Z,11.20
2022-08-25T07:30:21.117Z,11.65
2022-08-25T07:33:22.713Z,14.05
2022-08-25T07:36:25.181Z,10.45
2022-08-25T07:39:29.143Z,15.15
2022-08-25T07:42:30.891Z,15.38
2022-08-25T07:45:34.791Z,23.20
2022-08-25T07:48:36.764Z,15.80
2022-08-25T07:51:38.430Z,46.92
2022-08-25T07:55:00.130Z,20.17
2022-08-25T07:58:01.928Z,10.57
2022-08-25T08:01:03.788Z,7.55
2022-08-25T08:04:05.435Z,14.52
2022-08-25T08:07:12.016Z,11.15
2022-08-25T08:13:41.220Z,12.98
2022-08-25T08:16:43.549Z,16.55
2022-08-25T08:19:45.533Z,11.50
2022-08-25T08:22:47.176Z,9.40
2022-08-25T08:25:49.471Z,7.63
2022-08-25T08:28:51.869Z,12.27
2022-08-25T08:31:53.927Z,10.75
2022-08-25T08:34:55.578Z,6.72
2022-08-25T08:37:57.263Z,8.13
2022-08-25T08:45:35.420Z,11.02
2022-08-25T08:49:00.679Z,12.13
2022-08-25T08:52:05.724Z,13.73
2022-08-25T08:55:14.480Z,9.70
2022-08-25T08:58:26.513Z,7.03
2022-08-25T09:01:33.768Z,6.38
2022-08-25T09:04:44.163Z,9.10
2022-08-25T09:08:07.668Z,8.63
2022-08-25T09:11:21.549Z,9.75
2022-08-25T09:14:53.867Z,7.70
2022-08-25T09:18:04.589Z,11.57
2022-08-25T09:21:15.902Z,7.38
2022-08-25T09:24:37.152Z,8.70
2022-08-25T09:27:57.647Z,7.05
2022-08-25T09:31:09.512Z,9.48
2022-08-25T09:34:20.102Z,6.63
2022-08-25T09:37:23.466Z,8.85
2022-08-25T09:40:26.018Z,13.52
2022-08-25T09:43:33.651Z,9.15
2022-08-25T09:46:35.464Z,8.43
2022-08-25T09:49:51.623Z,8.43
2022-08-25T09:52:53.726Z,7.38
2022-08-25T09:56:07.363Z,13.98
2022-08-25T09:59:35.759Z,7.68
2022-08-25T10:02:37.962Z,12.18
2022-08-25T10:06:05.623Z,7.68
2022-08-25T10:09:08.685Z,9.73
2022-08-25T10:12:24.902Z,10.93
2022-08-25T10:15:37.922Z,12.13
2022-08-25T10:21:44.588Z,9.85
2022-08-25T10:24:46.496Z,8.77
2022-08-25T10:28:08.544Z,6.78
2022-08-25T10:31:34.800Z,11.60
2022-08-25T10:34:39.290Z,8.57
2022-08-25T10:38:21.770Z,8.43
2022-08-25T10:42:05.519Z,7.97
2022-08-25T10:45:55.672Z,10.32
2022-08-25T10:49:03.230Z,9.52
2022-08-25T10:52:23.712Z,12.32
2022-08-25T10:55:47.172Z,9.73
2022-08-25T10:59:01.436Z,9.70
2022-08-25T11:02:57.912Z,6.50
2022-08-25T11:06:05.171Z,11.93
2022-08-25T11:09:12.891Z,7.88
2022-08-25T11:12:26.500Z,7.90
2022-08-25T11:16:06.190Z,5.45
2022-08-25T11:19:30.730Z,7.55
2022-08-25T11:22:50.226Z,8.40
2022-08-25T11:25:55.830Z,9.45
2022-08-25T11:29:05.060Z,5.95
2022-08-25T11:32:13.485Z,9.15
2022-08-25T11:35:18.376Z,7.28
2022-08-25T11:38:41.633Z,13.00
2022-08-25T11:42:01.758Z,9.05
2022-08-25T11:45:40.469Z,10.27
2022-08-25T11:49:04.377Z,6.70
2022-08-25T11:52:30.680Z,6.68
2022-08-25T11:55:54.214Z,4.30
2022-08-25T11:58:55.852Z,9.85
2022-08-25T12:01:57.365Z,6.53
2022-08-25T12:04:59.191Z,7.40
2022-08-25T12:08:22.495Z,5.80
2022-08-25T12:11:42.152Z,7.38
2022-08-25T12:14:46.741Z,7.78
2022-08-25T12:18:16.738Z,7.13
2022-08-25T12:21:32.357Z,10.90
2022-08-25T12:24:48.631Z,8.65
2022-08-25T12:28:09.715Z,4.75
2022-08-25T12:31:47.556Z,8.50
2022-08-25T12:35:01.208Z,6.30
2022-08-25T12:38:14.376Z,8.57
2022-08-25T12:41:24.258Z,10.90
2022-08-25T12:44:43.165Z,6.30
2022-08-25T12:47:47.840Z,4.53
2022-08-25T12:51:01.468Z,9.65
2022-08-25T12:54:40.919Z,4.85
2022-08-25T12:58:01.092Z,3.35
2022-08-25T13:01:41.005Z,6.63
2022-08-25T13:08:17.529Z,7.05
2022-08-25T13:11:28.143Z,7.30
2022-08-25T13:14:40.057Z,7.78
2022-08-25T13:17:41.961Z,4.60
2022-08-25T13:20:47.380Z,5.30
2022-08-25T13:23:53.896Z,4.60
2022-08-25T13:27:00.115Z,8.98
2022-08-25T13:30:04.270Z,6.40
2022-08-25T13:33:18.242Z,4.00
2022-08-25T13:37:03.982Z,5.93
2022-08-25T13:40:26.366Z,6.78
2022-08-25T13:43:28.297Z,5.70
2022-08-25T13:46:31.486Z,6.35
2022-08-25T13:49:33.507Z,5.82
2022-08-25T13:52:35.139Z,4.13
2022-08-25T13:55:57.895Z,4.32
2022-08-25T13:59:02.274Z,3.95
2022-08-25T14:02:07.136Z,7.28
2022-08-25T14:05:10.870Z,4.38
2022-08-25T14:08:39.644Z,4.13
2022-08-25T14:11:55.388Z,5.72
2022-08-25T14:15:25.820Z,6.30
2022-08-25T14:18:31.331Z,7.20
2022-08-25T14:21:35.090Z,3.85
2022-08-25T14:24:43.787Z,4.43
2022-08-25T14:28:16.561Z,7.63
2022-08-25T14:31:29.915Z,6.38
2022-08-25T14:34:36.529Z,7.15
2022-08-25T14:37:38.243Z,4.65
2022-08-25T14:40:40.008Z,7.85
2022-08-25T14:43:42.318Z,5.65
2022-08-25T14:46:55.466Z,4.05
2022-08-25T14:49:57.788Z,4.97
2022-08-25T14:53:00.386Z,7.63
2022-08-25T14:56:03.844Z,5.10
2022-08-25T14:59:10.344Z,6.18
2022-08-25T15:02:18.537Z,6.65
2022-08-25T15:08:45.841Z,7.50
2022-08-25T15:11:50.794Z,4.55
2022-08-25T15:14:52.550Z,5.88
2022-08-25T15:17:57.035Z,4.72
2022-08-25T15:21:01.190Z,5.25
2022-08-25T15:24:09.281Z,5.53
2022-08-25T15:27:13.022Z,4.78
2022-08-25T15:30:15.488Z,7.75
2022-08-25T15:33:17.435Z,5.40
2022-08-25T15:36:24.667Z,5.03
2022-08-25T15:39:28.014Z,10.98
2022-08-25T15:42:29.763Z,8.00
2022-08-25T15:45:31.937Z,6.20
2022-08-25T15:48:35.191Z,5.10
2022-08-25T15:51:37.184Z,6.00
2022-08-25T15:54:38.887Z,8.45
2022-08-25T15:57:40.992Z,11.07
2022-08-25T16:00:45.095Z,3.10
2022-08-25T16:03:57.750Z,5.88
2022-08-25T16:07:00.517Z,6.35
2022-08-25T16:10:03.934Z,10.02
2022-08-25T16:13:05.943Z,4.15
2022-08-25T16:16:10.371Z,7.55
2022-08-25T16:19:14.996Z,4.75
2022-08-25T16:22:17.133Z,7.60
2022-08-25T16:25:19.301Z,6.05
2022-08-25T16:28:24.383Z,6.40
2022-08-25T16:31:26.837Z,6.65
2022-08-25T16:34:32.377Z,5.90
2022-08-25T16:37:36.312Z,6.68
2022-08-25T16:40:42.674Z,7.65
2022-08-25T16:43:45.151Z,6.72
2022-08-25T16:46:47.100Z,9.07
2022-08-25T16:49:48.908Z,12.60
2022-08-25T16:53:09.431Z,9.45
2022-08-25T16:56:11.524Z,10.38
2022-08-25T16:59:14.200Z,6.32
2022-08-25T17:02:16.128Z,6.32
2022-08-25T17:05:20.421Z,8.32
2022-08-25T17:08:28.887Z,5.85
2022-08-25T17:11:34.945Z,6.20
2022-08-25T17:14:36.676Z,7.80
2022-08-25T17:17:38.312Z,9.50
2022-08-25T17:20:44.496Z,6.85
2022-08-25T17:23:46.088Z,7.10
2022-08-25T17:26:50.795Z,9.88
2022-08-25T17:29:52.389Z,9.57
2022-08-25T17:32:54.105Z,6.93
2022-08-25T17:35:57.535Z,7.03
2022-08-25T17:38:59.186Z,10.38
2022-08-25T17:42:00.819Z,6.93
2022-08-25T17:45:03.080Z,9.88
2022-08-25T17:48:06.645Z,7.13
2022-08-25T17:51:09.156Z,8.60
2022-08-25T17:54:11.113Z,8.43
2022-08-25T17:57:12.984Z,10.40
2022-08-25T18:00:17.149Z,7.75
2022-08-25T18:03:19.340Z,20.58
2022-08-25T18:06:21.715Z,8.80
2022-08-25T18:09:23.351Z,7.88
2022-08-25T18:12:27.463Z,9.93
2022-08-25T18:15:30.301Z,10.20
2022-08-25T18:18:32.459Z,12.23
2022-08-25T18:21:34.929Z,8.93
2022-08-25T18:24:36.516Z,8.05
2022-08-25T18:27:38.099Z,9.07
2022-08-25T18:30:40.827Z,9.70
2022-08-25T18:33:44.817Z,10.27
2022-08-25T18:36:46.469Z,11.13
2022-08-25T18:40:07.168Z,11.63
2022-08-25T18:43:12.076Z,10.88
2022-08-25T18:46:13.721Z,10.23
2022-08-25T18:49:17.260Z,9.60
2022-08-25T18:52:19.198Z,8.38
2022-08-25T18:55:23.886Z,10.68
2022-08-25T18:58:26.470Z,15.10
2022-08-25T19:01:28.623Z,11.20
2022-08-25T19:04:32.034Z,12.23
2022-08-25T19:07:33.808Z,15.82
2022-08-25T19:10:36.351Z,14.18
2022-08-25T19:13:39.234Z,12.10
2022-08-25T19:16:42.420Z,9.73
2022-08-25T19:19:47.749Z,8.70
2022-08-25T19:22:50.800Z,10.75
2022-08-25T19:25:52.404Z,8.98
2022-08-25T19:28:54.790Z,9.88
2022-08-25T19:31:57.264Z,13.77
2022-08-25T19:35:03.410Z,14.35
2022-08-25T19:38:33.775Z,12.93
2022-08-25T19:41:31.350Z,17.27
2022-08-25T19:44:33.170Z,11.27
2022-08-25T19:47:37.563Z,15.98
2022-08-25T19:50:39.387Z,13.45
2022-08-25T19:53:43.061Z,13.13
2022-08-25T19:56:55.053Z,13.75
2022-08-25T19:59:57.242Z,13.85
2022-08-25T20:03:00.389Z,20.17
2022-08-25T20:06:02.416Z,16.20
2022-08-25T20:09:04.711Z,11.57
2022-08-25T20:12:07.681Z,13.15
2022-08-25T20:15:09.980Z,13.88
2022-08-25T20:18:11.592Z,15.73
2022-08-25T20:21:13.377Z,16.58
2022-08-25T20:24:33.523Z,14.50
2022-08-25T20:27:39.263Z,14.05
2022-08-25T20:30:44.079Z,15.48
2022-08-25T20:33:46.580Z,13.75
2022-08-25T20:36:50.517Z,16.23
2022-08-25T20:39:52.715Z,18.15
2022-08-25T20:42:55.614Z,13.95
2022-08-25T20:46:01.668Z,15.85
2022-08-25T20:49:03.406Z,15.45
2022-08-25T20:52:06.134Z,13.20
2022-08-25T20:55:09.556Z,16.38
2022-08-25T20:58:12.593Z,17.02
2022-08-25T21:01:41.070Z,17.02
2022-08-25T21:04:50.017Z,15.80
2022-08-25T21:07:52.309Z,16.33
2022-08-25T21:10:54.081Z,14.52
2022-08-25T21:13:57.474Z,14.73
2022-08-25T21:16:59.617Z,15.30
2022-08-25T21:20:02.280Z,15.63
2022-08-25T21:23:04.015Z,15.45
2022-08-25T21:26:13.581Z,15.18
2022-08-25T21:29:15.658Z,14.65
2022-08-25T21:32:19.010Z,16.15
2022-08-25T21:35:22.493Z,20.50
2022-08-25T21:38:24.230Z,19.02
2022-08-25T21:41:29.392Z,15.98
2022-08-25T21:44:31.028Z,14.85
2022-08-25T21:47:32.606Z,13.07
2022-08-25T21:50:38.219Z,15.82
2022-08-25T21:53:40.467Z,15.25
2022-08-25T21:56:50.478Z,18.23
2022-08-25T21:59:52.123Z,14.40
2022-08-25T22:02:53.754Z,21.42
2022-08-25T22:05:55.416Z,16.02
2022-08-25T22:08:57.422Z,14.63
2022-08-25T22:12:00.846Z,18.25
2022-08-25T22:15:05.853Z,13.85
2022-08-25T22:18:07.664Z,18.63
2022-08-25T22:21:09.657Z,17.67
2022-08-25T22:24:12.808Z,22.70
2022-08-25T22:27:15.688Z,21.13
2022-08-25T22:30:18.876Z,16.63
2022-08-25T22:33:20.512Z,18.25
2022-08-25T22:36:25.538Z,19.45
2022-08-25T22:39:27.737Z,24.73
2022-08-25T22:42:29.344Z,20.63
2022-08-25T22:45:31.925Z,23.20
2022-08-25T22:48:35.713Z,25.40
2022-08-25T22:51:38.063Z,23.80
2022-08-25T22:54:40.821Z,24.45
2022-08-25T22:57:42.618Z,22.05
2022-08-25T23:00:44.349Z,22.70
2022-08-25T23:03:47.604Z,19.00
2022-08-25T23:06:49.477Z,12.75
2022-08-25T23:09:51.093Z,15.80
2022-08-25T23:12:52.679Z,16.92
2022-08-25T23:15:54.438Z,18.50
2022-08-25T23:18:57.224Z,16.95
2022-08-25T23:22:12.377Z,16.05
2022-08-25T23:25:13.976Z,17.02
2022-08-25T23:28:15.781Z,18.60
2022-08-25T23:31:17.932Z,17.63
2022-08-25T23:34:19.561Z,15.60
2022-08-25T23:37:21.136Z,16.60
2022-08-25T23:40:23.002Z,18.15
2022-08-25T23:43:25.985Z,15.73
2022-08-25T23:46:29.449Z,13.75
2022-08-25T23:49:31.088Z,15.77
2022-08-25T23:52:33.327Z,11.82
2022-08-25T23:55:35.478Z,12.43
2022-08-25T23:58:37.071Z,16.80
